Time;durP1;ratioP1;P1;durP2;ratioP2;P2;SDS_P1;SDS_P2;PMS_P1;PMS_P2;Temp;Humidity;BMP_temperature;BMP_pressure;BME280_temperature;BME280_humidity;BME280_pressure;Samples;Min_cycle;Max_cycle;Signal;HPM_P1;HPM_P2
2022/06/07 00:01:44;;;;;;;20.70;17.88;;;;;;;14.08;100.00;101267.38;5233384;28;20108;-70
2022/06/07 00:04:16;;;;;;;20.48;17.70;;;;;;;14.07;100.00;101258.66;5233862;28;20021;-70
2022/06/07 00:06:47;;;;;;;21.98;17.85;;;;;;;14.09;100.00;101264.63;5233185;28;20030;-70
2022/06/07 00:09:18;;;;;;;20.52;17.85;;;;;;;14.10;100.00;101262.81;5231378;28;20025;-70
2022/06/07 00:11:49;;;;;;;20.77;18.52;;;;;;;14.11;100.00;101261.81;5231626;28;20118;-70
2022/06/07 00:14:21;;;;;;;20.23;18.08;;;;;;;14.08;100.00;101259.47;5233257;28;20025;-70
2022/06/07 00:16:54;;;;;;;21.08;18.83;;;;;;;14.08;100.00;101254.19;5232943;28;20044;-70
2022/06/07 00:19:25;;;;;;;;;;;;;;;14.57;100.00;101250.44;5232695;28;20124;-70
2022/06/07 00:21:56;;;;;;;20.17;18.20;;;;;;;14.13;100.00;101257.25;5232677;28;20039;-70
2022/06/07 00:24:28;;;;;;;20.90;18.73;;;;;;;14.12;100.00;101251.13;5232243;28;20029;-70
2022/06/07 00:27:00;;;;;;;23.52;21.05;;;;;;;14.14;100.00;101244.91;5231311;28;20496;-70
2022/06/07 00:29:33;;;;;;;23.65;21.13;;;;;;;14.11;100.00;101244.22;5232147;28;20029;-70
2022/06/07 00:32:05;;;;;;;24.48;21.70;;;;;;;14.11;100.00;101246.00;5232290;28;20453;-70
2022/06/07 00:34:36;;;;;;;24.17;21.50;;;;;;;14.09;100.00;101235.63;5232772;28;20091;-70
2022/06/07 00:37:08;;;;;;;24.30;21.75;;;;;;;14.06;100.00;101238.53;5233171;28;20030;-70
2022/06/07 00:39:39;;;;;;;24.25;21.75;;;;;;;14.03;100.00;101224.81;5229775;28;20481;-70
2022/06/07 00:42:11;;;;;;;24.75;22.23;;;;;;;14.06;100.00;101224.56;5232417;28;20088;-70
2022/06/07 00:44:44;;;;;;;26.27;22.95;;;;;;;14.04;100.00;101227.31;5227450;28;20041;-70
2022/06/07 00:47:18;;;;;;;22.75;20.35;;;;;;;14.03;100.00;101233.56;5223866;28;20025;-70
2022/06/07 00:50:05;;;;;;;23.40;20.90;;;;;;;14.11;100.00;101223.13;5223385;28;20037;-70
2022/06/07 00:52:36;;;;;;;24.60;19.88;;;;;;;13.97;100.00;101222.75;5220793;28;20033;-70
2022/06/07 00:55:09;;;;;;;22.75;20.10;;;;;;;13.93;100.00;101224.84;5221155;28;20032;-70
2022/06/07 00:57:41;;;;;;;22.30;19.83;;;;;;;13.94;100.00;101220.41;5227632;28;20022;-70
2022/06/07 01:00:18;;;;;;;21.75;18.88;;;;;;;13.98;100.00;101214.72;5221279;28;20395;-70
2022/06/07 01:02:51;;;;;;;20.85;18.73;;;;;;;13.92;100.00;101212.66;5226466;28;20029;-70
2022/06/07 01:05:22;;;;;;;21.98;18.60;;;;;;;13.93;100.00;101206.41;5223072;28;20029;-70
2022/06/07 01:10:47;;;;;;;19.63;17.52;;;;;;;13.95;100.00;101207.09;5232631;28;20037;-71
2022/06/07 01:13:22;;;;;;;17.90;15.98;;;;;;;13.94;100.00;101210.72;5228580;23;20056;-70
2022/06/07 01:16:05;;;;;;;18.38;16.42;;;;;;;14.02;100.00;101210.00;5206416;28;20033;-71
2022/06/07 01:18:37;;;;;;;17.85;15.98;;;;;;;13.90;100.00;101209.31;5211676;28;20010;-70
2022/06/07 01:21:18;;;;;;;16.77;15.10;;;;;;;13.98;100.00;101209.47;5211054;28;20033;-70
2022/06/07 01:23:49;;;;;;;17.13;14.20;;;;;;;13.89;100.00;101202.41;5212014;28;20037;-70
2022/06/07 01:26:21;;;;;;;14.55;13.00;;;;;;;13.91;100.00;101197.84;5208064;28;20084;-71
2022/06/07 01:28:53;;;;;;;14.40;12.80;;;;;;;13.87;100.00;101188.56;5212040;28;20018;-70
2022/06/07 01:31:24;;;;;;;16.35;13.57;;;;;;;13.90;100.00;101200.59;5211163;28;20042;-71
2022/06/07 01:33:55;;;;;;;14.27;12.82;;;;;;;13.88;100.00;101191.03;5212404;28;20040;-70
2022/06/07 01:36:27;;;;;;;14.43;12.82;;;;;;;13.88;100.00;101198.94;5195467;28;20042;-70
2022/06/07 01:41:55;;;;;;;13.10;11.50;;;;;;;13.84;100.00;101189.66;5215027;28;20042;-70
2022/06/07 01:44:28;;;;;;;14.85;11.40;;;;;;;13.86;100.00;101195.63;5215127;28;20049;-70
2022/06/07 01:46:59;;;;;;;;;;;;;;;14.34;100.00;101180.59;5215334;28;20022;-71
2022/06/07 01:49:31;;;;;;;13.50;10.50;;;;;;;13.81;100.00;101176.78;5197138;28;20393;-70
2022/06/07 01:52:04;;;;;;;11.93;9.70;;;;;;;13.78;100.00;101179.69;5214245;28;20041;-70
2022/06/07 01:54:36;;;;;;;11.27;9.75;;;;;;;13.79;100.00;101177.91;5214385;28;20025;-70
2022/06/07 01:57:08;;;;;;;12.10;9.63;;;;;;;13.80;100.00;101187.47;5215311;28;20071;-72
2022/06/07 01:59:39;;;;;;;10.35;9.25;;;;;;;13.76;100.00;101181.66;5197289;28;20044;-71
2022/06/07 02:02:11;;;;;;;10.48;9.30;;;;;;;13.74;100.00;101178.31;5214891;28;20073;-70
2022/06/07 02:04:43;;;;;;;9.82;8.80;;;;;;;13.71;100.00;101172.50;5214055;28;20029;-70
2022/06/07 02:07:15;;;;;;;11.63;8.07;;;;;;;13.71;100.00;101178.59;5215230;28;20026;-70
2022/06/07 02:09:46;;;;;;;11.20;9.43;;;;;;;13.68;100.00;101178.06;5215213;28;20079;-70
2022/06/07 02:12:18;;;;;;;12.43;8.27;;;;;;;13.66;100.00;101174.75;5210612;28;20042;-71
2022/06/07 02:14:49;;;;;;;10.15;8.65;;;;;;;13.67;100.00;101176.41;5203599;28;20034;-71
2022/06/07 02:17:21;;;;;;;10.23;7.93;;;;;;;13.69;100.00;101175.28;5208228;28;20026;-71
2022/06/07 02:19:52;;;;;;;9.68;7.38;;;;;;;13.65;100.00;101175.72;5201258;28;20092;-71
2022/06/07 02:22:23;;;;;;;9.15;7.30;;;;;;;13.64;100.00;101167.00;5201173;28;20042;-71
2022/06/07 02:24:55;;;;;;;10.98;7.40;;;;;;;13.65;100.00;101167.81;5202801;28;20041;-70
2022/06/07 02:27:26;;;;;;;8.55;6.95;;;;;;;13.61;100.00;101165.47;5207806;28;20477;-71
2022/06/07 02:29:58;;;;;;;7.75;6.95;;;;;;;13.60;100.00;101163.00;5200031;28;20497;-71
2022/06/07 02:32:31;;;;;;;8.57;6.45;;;;;;;13.59;100.00;101158.69;5187783;28;20524;-71
2022/06/07 02:35:04;;;;;;;9.93;6.32;;;;;;;13.59;100.00;101166.56;5204124;28;20706;-71
2022/06/07 02:37:38;;;;;;;10.18;6.75;;;;;;;13.59;100.00;101163.94;5203662;28;20553;-70
2022/06/07 02:40:09;;;;;;;7.85;6.30;;;;;;;13.54;100.00;101156.47;5205556;28;20480;-71
2022/06/07 02:42:41;;;;;;;7.57;6.72;;;;;;;13.52;100.00;101149.69;5182717;28;20026;-71
2022/06/07 02:45:12;;;;;;;8.93;6.25;;;;;;;13.54;100.00;101156.47;5201740;28;20019;-71
2022/06/07 02:47:43;;;;;;;8.25;5.88;;;;;;;13.49;100.00;101150.00;5207416;28;20030;-71
2022/06/07 02:50:15;;;;;;;10.05;5.43;;;;;;;13.50;100.00;101156.91;5200139;28;20034;-70
2022/06/07 02:52:46;;;;;;;7.95;5.47;;;;;;;13.45;100.00;101152.06;5203776;28;20060;-71
2022/06/07 02:55:18;;;;;;;8.02;5.00;;;;;;;13.48;100.00;101153.56;5203242;28;20041;-70
2022/06/07 02:57:49;;;;;;;7.90;5.20;;;;;;;13.43;100.00;101143.47;5200844;28;20061;-71
2022/06/07 03:00:21;;;;;;;6.88;4.60;;;;;;;13.44;100.00;101141.66;5203115;28;20489;-71
2022/06/07 03:02:53;;;;;;;9.15;5.30;;;;;;;13.43;100.00;101154.00;5204233;28;20120;-70
2022/06/07 03:05:24;;;;;;;7.97;4.10;;;;;;;13.42;100.00;101149.72;5202769;28;20034;-71
2022/06/07 03:07:56;;;;;;;9.23;4.70;;;;;;;13.42;100.00;101141.81;5203915;28;20078;-72
2022/06/07 03:10:27;;;;;;;7.72;4.75;;;;;;;13.39;100.00;101153.44;5200587;28;20400;-70
2022/06/07 03:12:58;;;;;;;9.15;4.80;;;;;;;13.40;100.00;101151.66;5222323;28;20116;-70
2022/06/07 03:15:30;;;;;;;8.52;4.85;;;;;;;13.43;100.00;101163.69;5226200;28;20782;-71
2022/06/07 03:18:01;;;;;;;7.22;4.63;;;;;;;13.42;100.00;101164.69;5223168;28;20025;-71
2022/06/07 03:20:32;;;;;;;6.50;4.97;;;;;;;13.42;100.00;101165.50;5222697;28;20583;-70
2022/06/07 03:23:04;;;;;;;9.88;4.90;;;;;;;13.42;100.00;101167.31;5221272;28;20096;-70
2022/06/07 03:25:35;;;;;;;8.93;4.57;;;;;;;13.41;100.00;101173.53;5223294;28;20033;-70
2022/06/07 03:28:07;;;;;;;8.68;4.82;;;;;;;13.39;100.00;101176.31;5227066;28;20017;-71
2022/06/07 03:30:39;;;;;;;11.68;4.50;;;;;;;13.39;100.00;101171.88;5221486;28;20056;-71
2022/06/07 03:33:11;;;;;;;6.15;4.15;;;;;;;13.35;100.00;101170.50;5225600;28;20029;-70
2022/06/07 03:35:42;;;;;;;6.03;4.25;;;;;;;13.36;100.00;101173.94;5203231;28;20057;-70
2022/06/07 03:38:13;;;;;;;6.22;4.38;;;;;;;13.34;100.00;101168.84;5226396;28;20641;-71
2022/06/07 03:40:45;;;;;;;8.32;5.05;;;;;;;13.33;100.00;101177.72;5221078;28;20048;-71
2022/06/07 03:43:16;;;;;;;8.45;4.38;;;;;;;13.32;100.00;101181.28;5222375;28;20033;-70
2022/06/07 03:45:47;;;;;;;8.20;3.97;;;;;;;13.32;100.00;101183.94;5205585;28;20057;-71
2022/06/07 03:48:19;;;;;;;9.10;4.60;;;;;;;13.33;100.00;101184.75;5224094;28;20072;-70
2022/06/07 03:50:50;;;;;;;7.60;4.47;;;;;;;13.33;100.00;101188.25;5224816;28;20555;-70
2022/06/07 03:53:21;;;;;;;8.20;4.63;;;;;;;13.33;100.00;101187.38;5221639;28;20109;-71
2022/06/07 03:55:53;;;;;;;5.80;4.53;;;;;;;13.34;100.00;101192.53;5223757;28;20066;-70
2022/06/07 03:58:25;;;;;;;7.38;4.30;;;;;;;13.36;100.00;101187.94;5223004;28;20040;-70
2022/06/07 04:00:59;;;;;;;7.07;4.18;;;;;;;13.35;100.00;101188.91;5219330;28;20034;-70
2022/06/07 04:03:30;;;;;;;6.78;4.90;;;;;;;13.32;100.00;101191.81;5224479;28;20064;-70
2022/06/07 04:06:02;;;;;;;8.00;4.60;;;;;;;13.34;100.00;101195.16;5224999;28;20060;-71
2022/06/07 04:08:34;;;;;;;8.27;4.43;;;;;;;13.34;100.00;101192.53;5222798;28;20030;-71
2022/06/07 04:11:05;;;;;;;7.32;4.28;;;;;;;13.36;100.00;101195.00;5219795;28;20056;-71
2022/06/07 04:13:36;;;;;;;7.75;4.68;;;;;;;13.36;100.00;101197.63;5199687;28;20469;-71
2022/06/07 04:16:13;;;;;;;6.80;3.95;;;;;;;13.44;100.00;101197.75;5192445;28;20027;-71
2022/06/07 04:18:45;;;;;;;10.90;4.93;;;;;;;13.35;100.00;101194.19;5186573;28;20504;-71
2022/06/07 04:21:17;;;;;;;6.40;4.22;;;;;;;13.38;100.00;101193.91;5187045;28;20109;-72
2022/06/07 04:23:48;;;;;;;8.57;4.40;;;;;;;13.36;100.00;101192.38;5181723;28;20031;-71
2022/06/07 04:26:25;;;;;;;6.70;4.53;;;;;;;13.46;100.00;101195.00;5185062;28;20027;-71
2022/06/07 04:28:58;;;;;;;6.72;4.55;;;;;;;13.43;100.00;101193.47;5183392;28;20030;-71
2022/06/07 04:31:29;;;;;;;8.70;5.07;;;;;;;13.46;100.00;101192.38;5184856;28;20030;-71
2022/06/07 04:34:00;;;;;;;7.85;4.57;;;;;;;13.46;100.00;101195.84;5180390;28;20383;-70
2022/06/07 04:36:32;;;;;;;7.25;4.88;;;;;;;13.49;100.00;101192.09;5185149;28;20054;-71
2022/06/07 04:39:06;;;;;;;7.75;4.53;;;;;;;13.53;100.00;101193.47;5180409;28;20079;-70
2022/06/07 04:41:38;;;;;;;8.43;4.80;;;;;;;13.55;100.00;101199.41;5178098;28;20083;-71
2022/06/07 04:44:09;;;;;;;7.38;5.20;;;;;;;13.59;100.00;101201.63;5185187;28;20102;-71
2022/06/07 04:46:40;;;;;;;9.55;5.60;;;;;;;13.58;100.00;101193.88;5179085;28;20031;-71
2022/06/07 04:49:11;;;;;;;7.75;5.25;;;;;;;13.66;100.00;101198.44;5173322;28;20018;-71
2022/06/07 04:51:43;;;;;;;6.90;5.18;;;;;;;13.67;100.00;101198.28;5177682;28;20045;-71
2022/06/07 04:54:14;;;;;;;9.32;5.63;;;;;;;13.74;100.00;101203.81;5185987;28;20033;-71
2022/06/07 04:56:45;;;;;;;8.82;5.47;;;;;;;13.66;100.00;101196.63;5177503;28;20031;-71
2022/06/07 04:59:17;;;;;;;8.85;5.65;;;;;;;13.77;100.00;101204.38;5184021;28;20034;-70
2022/06/07 05:01:48;;;;;;;6.50;5.68;;;;;;;13.79;100.00;101206.88;5183235;28;20093;-71
2022/06/07 05:04:19;;;;;;;7.03;5.30;;;;;;;13.80;100.00;101206.72;5179502;28;20030;-71
2022/06/07 05:06:51;;;;;;;10.40;5.85;;;;;;;13.84;100.00;101210.72;5185470;28;20050;-72
2022/06/07 05:09:24;;;;;;;8.43;5.15;;;;;;;13.87;100.00;101210.47;5172884;28;20549;-71
2022/06/07 05:11:55;;;;;;;8.18;5.10;;;;;;;13.90;100.00;101211.94;5187215;28;20035;-71
2022/06/07 05:14:27;;;;;;;10.10;5.53;;;;;;;13.91;100.00;101208.38;5205668;28;20378;-71
2022/06/07 05:16:58;;;;;;;7.53;5.65;;;;;;;13.87;100.00;101214.91;5203979;28;20037;-71
2022/06/07 05:19:31;;;;;;;7.78;5.50;;;;;;;13.92;100.00;101212.66;5213842;28;20121;-71
2022/06/07 05:22:03;;;;;;;8.98;5.68;;;;;;;13.96;100.00;101223.72;5215054;28;20030;-71
2022/06/07 05:24:35;;;;;;;8.18;5.63;;;;;;;13.94;100.00;101215.13;5209686;28;20026;-72
2022/06/07 05:27:08;;;;;;;8.32;5.47;;;;;;;13.96;100.00;101219.28;5206000;28;20026;-70
2022/06/07 05:29:50;;;;;;;8.95;5.93;;;;;;;14.12;100.00;101221.31;5213938;28;20064;-71
2022/06/07 05:32:22;;;;;;;8.13;5.90;;;;;;;14.01;100.00;101224.94;5213468;28;20026;-71
2022/06/07 05:34:53;;;;;;;8.98;6.28;;;;;;;14.09;100.00;101225.09;5214162;28;20038;-71
2022/06/07 05:37:24;;;;;;;6.35;5.72;;;;;;;14.14;100.00;101223.84;5215333;28;20120;-71
2022/06/07 05:39:56;;;;;;;10.32;6.28;;;;;;;14.15;100.00;101221.03;5198338;28;20334;-71
2022/06/07 05:42:27;;;;;;;6.50;5.60;;;;;;;14.17;100.00;101223.50;5215228;28;20037;-71
2022/06/07 05:44:58;;;;;;;7.57;5.88;;;;;;;14.19;100.00;101208.41;5213257;28;20068;-76
2022/06/07 05:47:30;;;;;;;15.93;7.35;;;;;;;14.20;100.00;101220.59;5214651;28;20104;-71
2022/06/07 05:50:04;;;;;;;7.85;6.50;;;;;;;14.15;100.00;101223.69;5214212;28;20030;-71
2022/06/07 05:52:40;;;;;;;12.30;6.57;;;;;;;14.21;100.00;101224.91;5213841;28;20068;-71
2022/06/07 05:55:11;;;;;;;9.02;6.00;;;;;;;14.24;100.00;101216.69;5214008;28;20026;-71
2022/06/07 05:57:49;;;;;;;10.18;6.47;;;;;;;14.29;100.00;101227.66;5214529;28;20060;-71
2022/06/07 06:00:21;;;;;;;9.10;7.03;;;;;;;14.37;100.00;101227.75;5215604;28;20037;-72
2022/06/07 06:02:53;;;;;;;8.88;6.95;;;;;;;14.43;100.00;101221.06;5197317;28;20030;-71
2022/06/07 06:05:24;;;;;;;12.60;7.85;;;;;;;14.48;100.00;101222.28;5214236;28;20107;-71
2022/06/07 06:10:45;;;;;;;12.25;8.00;;;;;;;14.69;100.00;101222.06;5215102;28;20041;-71
2022/06/07 06:13:17;;;;;;;12.18;7.70;;;;;;;14.75;100.00;101228.56;5212907;28;20033;-71
2022/06/07 06:15:48;;;;;;;12.85;8.00;;;;;;;14.89;100.00;101219.31;5212852;28;20026;-72
2022/06/07 06:18:21;;;;;;;10.57;7.45;;;;;;;14.94;100.00;101219.69;5214568;28;20437;-71
2022/06/07 06:20:53;;;;;;;;;;;;;;;15.48;100.00;101223.16;5215331;28;20121;-71
2022/06/07 06:23:24;;;;;;;13.65;8.25;;;;;;;15.13;100.00;101213.47;5214022;28;20004;-71
2022/06/07 06:25:56;;;;;;;10.43;7.85;;;;;;;15.24;100.00;101226.44;5212306;28;20113;-71
2022/06/07 06:28:27;;;;;;;14.43;9.60;;;;;;;15.24;100.00;101221.97;5213503;28;20026;-71
2022/06/07 06:31:02;;;;;;;10.27;9.18;;;;;;;15.43;100.00;101210.41;5213509;28;20761;-71
2022/06/07 06:33:38;;;;;;;12.80;8.82;;;;;;;15.56;100.00;101218.75;5212988;28;20022;-71
2022/06/07 06:36:12;;;;;;;13.15;9.30;;;;;;;15.65;100.00;101216.22;5214191;28;20370;-71
2022/06/07 06:38:44;;;;;;;13.60;9.80;;;;;;;15.62;100.00;101217.34;5195619;28;20061;-71
2022/06/07 06:41:36;;;;;;;13.13;9.20;;;;;;;15.82;100.00;101221.47;5212995;28;20034;-71
2022/06/07 06:44:09;;;;;;;12.52;9.38;;;;;;;15.74;100.00;101217.94;5213334;28;20018;-71
2022/06/07 06:46:43;;;;;;;14.60;9.63;;;;;;;15.81;100.00;101211.06;5214256;28;20022;-71
2022/06/07 06:49:15;;;;;;;11.55;8.75;;;;;;;15.80;100.00;101215.53;5213487;28;20065;-71
2022/06/07 06:51:47;;;;;;;11.60;9.27;;;;;;;15.89;100.00;101213.75;5214319;28;20037;-71
2022/06/07 06:54:19;;;;;;;10.70;9.33;;;;;;;16.08;100.00;101217.16;5213385;28;20495;-71
2022/06/07 06:56:50;;;;;;;14.00;10.18;;;;;;;16.29;100.00;101221.09;5213255;28;20061;-71
2022/06/07 06:59:22;;;;;;;11.27;9.45;;;;;;;16.50;100.00;101227.78;5212517;28;20121;-72
2022/06/07 07:01:54;;;;;;;12.13;8.82;;;;;;;16.58;100.00;101235.72;5213642;28;20034;-71
2022/06/07 07:04:26;;;;;;;11.98;9.65;;;;;;;16.78;100.00;101228.38;5213231;28;20120;-71
2022/06/07 07:06:57;;;;;;;13.45;9.20;;;;;;;16.93;100.00;101229.44;5212865;28;20704;-71
2022/06/07 07:09:28;;;;;;;11.38;8.95;;;;;;;16.99;100.00;101241.19;5212060;28;20029;-71
2022/06/07 07:12:00;;;;;;;10.63;8.68;;;;;;;17.09;100.00;101236.56;5210622;23;21208;-70
2022/06/07 07:14:31;;;;;;;12.73;9.55;;;;;;;16.96;100.00;101228.25;5224107;28;20041;-70
2022/06/07 07:17:03;;;;;;;13.57;9.57;;;;;;;17.12;100.00;101235.41;5230198;28;20025;-70
2022/06/07 07:19:34;;;;;;;11.00;9.45;;;;;;;17.10;100.00;101232.09;5232724;28;20025;-70
2022/06/07 07:22:06;;;;;;;10.63;9.15;;;;;;;17.08;100.00;101226.97;5230983;28;20032;-70
2022/06/07 07:24:37;;;;;;;12.40;9.13;;;;;;;17.19;100.00;101231.13;5230293;28;20029;-70
2022/06/07 07:27:09;;;;;;;12.48;9.30;;;;;;;17.33;100.00;101234.94;5230750;28;20134;-70
2022/06/07 07:29:40;;;;;;;14.23;11.13;;;;;;;17.57;100.00;101229.63;5233063;28;20079;-70
2022/06/07 07:32:12;;;;;;;11.13;9.98;;;;;;;17.85;100.00;101226.69;5226513;28;20111;-70
2022/06/07 07:34:43;;;;;;;14.93;10.45;;;;;;;17.99;100.00;101223.31;5230838;28;20087;-71
2022/06/07 07:37:15;;;;;;;13.50;10.48;;;;;;;18.32;100.00;101233.84;5228925;28;20464;-71
2022/06/07 07:39:46;;;;;;;13.95;9.88;;;;;;;18.46;100.00;101230.47;5229672;28;20041;-70
2022/06/07 07:42:17;;;;;;;12.93;10.90;;;;;;;18.35;100.00;101231.66;5229020;28;20552;-71
2022/06/07 07:44:48;;;;;;;13.10;10.35;;;;;;;18.33;100.00;101230.16;5230345;28;20551;-71
2022/06/07 07:47:20;;;;;;;11.00;9.77;;;;;;;18.24;100.00;101229.38;5228108;28;20179;-71
2022/06/07 07:49:53;;;;;;;12.40;9.43;;;;;;;18.09;100.00;101209.88;5228695;28;20025;-71
2022/06/07 07:52:25;;;;;;;10.77;9.52;;;;;;;18.14;100.00;101232.22;5223827;28;20029;-71
2022/06/07 07:54:57;;;;;;;13.23;10.13;;;;;;;18.19;100.00;101223.78;5232696;28;20025;-70
2022/06/07 07:57:28;;;;;;;12.15;9.88;;;;;;;18.15;100.00;101222.47;5226957;28;20022;-71
2022/06/07 08:00:00;;;;;;;13.25;10.10;;;;;;;18.18;100.00;101227.41;5228445;28;20029;-71
2022/06/07 08:02:31;;;;;;;11.07;9.73;;;;;;;18.33;100.00;101227.53;5230921;28;20021;-71
2022/06/07 08:05:03;;;;;;;11.88;9.88;;;;;;;18.58;100.00;101230.91;5221421;28;20563;-71
2022/06/07 08:07:34;;;;;;;15.17;11.47;;;;;;;18.44;100.00;101232.47;5225939;28;20021;-71
2022/06/07 08:10:06;;;;;;;13.83;10.37;;;;;;;18.61;100.00;101222.59;5223655;28;20075;-71
2022/06/07 08:12:38;;;;;;;11.38;9.35;;;;;;;18.68;100.00;101219.09;5207293;28;20057;-71
2022/06/07 08:15:10;;;;;;;11.82;10.65;;;;;;;18.92;100.00;101228.75;5221043;28;20036;-71
2022/06/07 08:17:42;;;;;;;16.37;10.73;;;;;;;19.27;100.00;101220.41;5230320;28;20033;-70
2022/06/07 08:20:14;;;;;;;11.50;10.32;;;;;;;19.20;100.00;101223.75;5227902;28;20539;-71
2022/06/07 08:22:45;;;;;;;13.60;10.73;;;;;;;19.33;100.00;101217.84;5229337;28;20025;-71
2022/06/07 08:25:17;;;;;;;13.80;12.40;;;;;;;19.64;100.00;101220.44;5226880;28;20108;-71
2022/06/07 08:27:48;;;;;;;15.10;13.13;;;;;;;19.92;100.00;101222.47;5230211;28;20024;-71
2022/06/07 08:30:21;;;;;;;14.67;13.17;;;;;;;19.93;100.00;101218.84;5204242;28;20112;-71
2022/06/07 08:32:52;;;;;;;14.52;13.15;;;;;;;19.77;100.00;101219.81;5203721;28;20045;-72
2022/06/07 08:38:13;;;;;;;13.95;12.10;;;;;;;19.51;100.00;101214.03;5215747;28;20046;-72
2022/06/07 08:40:45;;;;;;;14.17;11.87;;;;;;;19.56;100.00;101215.16;5229574;28;20021;-72
2022/06/07 08:43:20;;;;;;;12.73;11.43;;;;;;;19.41;100.00;101223.09;5228059;28;20029;-72
2022/06/07 08:45:54;;;;;;;12.98;11.57;;;;;;;19.36;100.00;101222.00;5230915;28;20030;-72
2022/06/07 08:48:32;;;;;;;12.45;10.75;;;;;;;19.45;100.00;101220.91;5234346;28;20087;-72
2022/06/07 08:51:20;;;;;;;12.15;10.93;;;;;;;19.72;100.00;101214.22;5235248;28;20021;-72
2022/06/07 08:53:58;;;;;;;12.88;11.68;;;;;;;19.88;100.00;101221.19;5232647;28;20484;-72
2022/06/07 08:56:33;;;;;;;14.75;13.35;;;;;;;19.92;100.00;101217.97;5232864;28;20073;-72
2022/06/07 08:59:19;;;;;;;14.30;12.90;;;;;;;20.41;100.00;101213.94;5236184;28;20488;-72
2022/06/07 09:02:05;;;;;;;13.55;12.10;;;;;;;20.46;100.00;101216.91;5236122;28;20112;-72
2022/06/07 09:04:39;;;;;;;11.70;10.60;;;;;;;20.42;100.00;101212.94;5234239;28;20029;-72
2022/06/07 09:07:18;;;;;;;11.75;10.10;;;;;;;20.48;100.00;101220.19;5235210;28;20021;-72
2022/06/07 09:12:57;;;;;;;11.48;10.35;;;;;;;21.00;100.00;101210.34;5234238;28;20053;-72
2022/06/07 09:15:31;;;;;;;10.63;9.48;;;;;;;20.92;100.00;101216.63;5235201;28;20025;-72
2022/06/07 09:18:05;;;;;;;11.30;9.88;;;;;;;20.80;100.00;101218.97;5235208;28;20502;-72
2022/06/07 09:20:41;;;;;;;11.68;10.00;;;;;;;20.70;100.00;101212.28;5234175;28;20037;-72
2022/06/07 09:23:18;;;;;;;10.32;8.18;;;;;;;20.76;100.00;101212.38;5227521;28;20017;-72
2022/06/07 09:25:52;;;;;;;10.20;9.13;;;;;;;20.86;100.00;101206.72;5228347;28;20132;-72
2022/06/07 09:28:30;;;;;;;9.65;8.65;;;;;;;20.95;100.00;101218.91;5235027;28;20029;-72
2022/06/07 09:31:12;;;;;;;8.70;7.80;;;;;;;21.09;100.00;101215.34;5235250;28;20099;-72
2022/06/07 09:34:04;;;;;;;;;;;;;;;21.75;100.00;101212.47;5235629;28;20029;-72
2022/06/07 09:36:37;;;;;;;10.25;8.32;;;;;;;21.40;100.00;101197.41;5234191;28;20395;-72
2022/06/07 09:39:24;;;;;;;8.65;7.30;;;;;;;21.62;100.00;101199.00;5233208;28;20425;-72
2022/06/07 09:42:23;;;;;;;7.80;6.78;;;;;;;21.86;100.00;101211.91;5230237;28;20033;-72
2022/06/07 09:45:12;;;;;;;7.28;6.03;;;;;;;21.85;100.00;101206.75;5207809;28;20488;-72
2022/06/07 09:47:43;;;;;;;6.80;5.72;;;;;;;21.88;100.00;101206.38;5219025;28;20030;-72
2022/06/07 09:50:23;;;;;;;9.17;5.67;;;;;;;22.00;100.00;101203.97;5236058;28;20025;-72
2022/06/07 09:52:57;;;;;;;6.30;4.68;;;;;;;22.14;100.00;101199.59;5231213;28;20555;-72
2022/06/07 09:55:40;;;;;;;7.63;5.10;;;;;;;21.96;100.00;101203.56;5215723;28;20026;-72
2022/06/07 09:58:29;;;;;;;6.95;4.43;;;;;;;21.92;100.00;101199.63;5231728;28;20025;-72
2022/06/07 10:01:11;;;;;;;6.90;5.45;;;;;;;21.53;100.00;101198.34;5231777;28;20486;-72
2022/06/07 10:04:03;;;;;;;7.87;5.40;;;;;;;21.70;100.00;101195.38;5234519;28;20058;-72
2022/06/07 10:06:40;;;;;;;7.53;5.13;;;;;;;21.59;100.00;101194.91;5234464;28;20275;-72
2022/06/07 10:09:20;;;;;;;7.20;5.75;;;;;;;21.39;100.00;101204.59;5233378;28;20524;-72
2022/06/07 10:12:14;;;;;;;8.10;5.30;;;;;;;21.48;100.00;101190.13;5232941;28;20026;-72
2022/06/07 10:14:57;;;;;;;8.18;5.70;;;;;;;21.46;100.00;101186.81;5233504;28;20060;-72
2022/06/07 10:17:34;;;;;;;7.55;5.18;;;;;;;21.49;100.00;101189.09;5230531;28;20149;-72
2022/06/07 10:20:24;;;;;;;7.47;3.75;;;;;;;21.41;100.00;101185.75;5230598;28;20045;-72
2022/06/07 10:23:13;;;;;;;4.40;3.28;;;;;;;21.62;100.00;101181.16;5232679;28;20511;-72
2022/06/07 10:26:12;;;;;;;6.18;3.35;;;;;;;21.88;100.00;101181.56;5232282;28;20474;-72
2022/06/07 10:29:05;;;;;;;6.63;3.17;;;;;;;21.88;100.00;101181.56;5217494;28;20072;-72
2022/06/07 10:31:43;;;;;;;5.50;3.67;;;;;;;21.56;100.00;101183.81;5205094;28;20033;-72
2022/06/07 10:34:40;;;;;;;6.15;3.30;;;;;;;21.51;100.00;101181.69;5219739;28;20033;-72
2022/06/07 10:37:28;;;;;;;6.57;3.10;;;;;;;21.20;100.00;101184.72;5220058;28;20048;-72
2022/06/07 10:40:34;;;;;;;5.18;2.97;;;;;;;21.27;100.00;101190.09;5230419;28;20021;-72
2022/06/07 10:43:18;;;;;;;6.25;3.03;;;;;;;21.13;100.00;101184.63;5225866;28;20492;-72
2022/06/07 10:45:59;;;;;;;5.57;2.90;;;;;;;21.12;100.00;101185.66;5231882;28;20060;-72
2022/06/07 10:48:46;;;;;;;5.22;3.55;;;;;;;21.49;100.00;101178.44;5229802;28;20100;-72
2022/06/07 10:54:20;;;;;;;8.48;4.32;;;;;;;21.45;100.00;101174.50;5227926;28;20033;-72
2022/06/07 10:57:33;;;;;;;4.75;3.38;;;;;;;21.83;100.00;101168.81;5221822;28;20033;-72
2022/06/07 11:00:35;;;;;;;4.57;3.00;;;;;;;21.65;100.00;101169.31;5187706;28;20126;-72
2022/06/07 11:03:26;;;;;;;5.53;2.72;;;;;;;21.64;100.00;101175.66;5232316;28;20522;-72
2022/06/07 11:09:26;;;;;;;5.60;2.75;;;;;;;22.33;100.00;101169.50;5220292;28;20038;-72
2022/06/07 11:12:01;;;;;;;3.47;2.03;;;;;;;22.59;100.00;101164.22;5184109;28;20075;-73
2022/06/07 11:14:51;;;;;;;4.75;2.10;;;;;;;22.92;100.00;101173.34;5212916;28;20029;-72
2022/06/07 11:17:30;;;;;;;3.92;2.17;;;;;;;22.77;100.00;101173.53;5225690;28;20079;-72
2022/06/07 11:20:27;;;;;;;4.43;2.03;;;;;;;23.06;100.00;101175.84;5231800;28;20064;-72
2022/06/07 11:23:17;;;;;;;5.40;1.83;;;;;;;23.21;100.00;101174.81;5229455;28;20030;-72
2022/06/07 11:26:02;;;;;;;3.38;1.67;;;;;;;23.24;100.00;101163.72;5228189;28;20041;-72
2022/06/07 11:28:43;;;;;;;6.28;2.22;;;;;;;23.09;100.00;101165.78;5232490;28;20040;-72
2022/06/07 11:31:15;;;;;;;5.70;2.00;;;;;;;23.04;100.00;101175.25;5232112;28;20525;-72
2022/06/07 11:33:52;;;;;;;7.97;2.43;;;;;;;23.24;100.00;101163.72;5208437;28;20033;-72
2022/06/07 11:36:33;;;;;;;12.02;2.53;;;;;;;23.22;100.00;101171.13;5230535;28;20029;-72
2022/06/07 11:39:24;;;;;;;78.50;13.18;;;;;;;23.23;100.00;101175.47;5230773;28;20167;-72
2022/06/07 11:42:26;;;;;;;7.70;2.05;;;;;;;23.22;100.00;101168.44;5231187;28;20404;-72
2022/06/07 11:45:19;;;;;;;4.07;1.30;;;;;;;23.16;100.00;101169.28;5210668;28;20511;-72
2022/06/07 11:48:10;;;;;;;3.47;1.30;;;;;;;23.42;100.00;101157.75;5216484;28;20036;-72
2022/06/07 11:51:12;;;;;;;3.15;1.60;;;;;;;23.46;100.00;101159.00;5229512;28;20026;-72
2022/06/07 11:53:58;;;;;;;3.33;1.60;;;;;;;23.42;100.00;101153.22;5215896;28;20133;-72
2022/06/07 11:56:36;;;;;;;4.22;1.95;;;;;;;23.24;100.00;101161.06;5232258;28;20044;-71
2022/06/07 11:59:16;;;;;;;4.85;1.77;;;;;;;23.65;100.00;101154.66;5218110;28;20029;-72
2022/06/07 12:02:07;;;;;;;5.15;2.40;;;;;;;23.82;100.00;101153.19;5227525;28;20517;-71
2022/06/07 12:04:43;;;;;;;4.05;1.98;;;;;;;23.95;100.00;101155.00;5229894;28;20034;-71
2022/06/07 12:07:48;;;;;;;3.65;1.85;;;;;;;23.96;100.00;101152.13;5226683;28;20057;-72
2022/06/07 12:10:36;;;;;;;3.20;1.38;;;;;;;24.02;98.57;101153.13;5224009;28;20017;-71